Flight Briefing for CPX788

Departure Arrival
Incheon International Airport (RKSI)
Click to view FAA NOTAMS
Changi International Airport (WSSS)
Click to view FAA NOTAMS
Departure Time Arrival Time
N/A N/A
Aircraft Distance
MD-11SF 2501nm
Departure METAR Arrival METAR
RKSI 192300Z 28006KT 6000 BKN040 02/M02 Q1024 NOSIG WSSS 192300Z 07003KT 040V100 9000 FEW016 BKN300 26/24 Q1013 NOSIG
Suggested Route
BOPTA1K BOPTA Z51 BEDES Y711 MUGUS Y742 SALMI Q11 TACLE Q12 KABAM N892 VMR


View recent IFR Routes data
Notes



Charts and Procedures

Charts for RKSI
No chart available
Charts for WSSS
No chart available

Ventusky Weather




{"cat":null,"equip":null,"transponder":null,"pbn":"PBN\/","maxpax":null,"oew":"0.0","mzfw":"0.0","mtow":"0.0","mlw":"0.0","maxfuel":"0.0"} DEVELOPMENTAL TEST USE ONLY